OEBA/ABT METAR and TAF weather

Enter ICAO airport designator
Station Type Date Time Source
OEBA METAR 2019/07/20 19:00 UTC NOAA

OEBA 201900Z 04010KT CAVOK 31/05 Q1017 NOSIG


Station Type Date Time Source
OEBA Decoded METAR 2019/07/20 19:00 UTC NOAA

Al Baha, Saudi Arabia (OEBA) 20-18N 041-38E 1662M
Jul 20, 2019 - 03:00 PM EDT / 2019.07.20 1900 UTC
Wind: from the NE (040 degrees) at 12 MPH (10 KT):0
Visibility: greater than 7 mile(s):0
Temperature: 87 F (31 C)
Dew Point: 41 F (5 C)
Relative Humidity: 19%
Pressure (altimeter): 30.03 in. Hg (1017 hPa)
ob: OEBA 201900Z 04010KT CAVOK 31/05 Q1017 NOSIG
cycle: 19

Station Type Date Time Source
OEBA TAF 2019/07/20 12:03 UTC NOAA

TAF OEBA 201100Z 2012/2118 07006G16KT 6000 FEW030
TEMPO 2012/2018 FEW025CB SCT030
TEMPO 2012/2020 4000 DU BLDU

Example: see airport list